sensor_id;sensor_type;location;lat;lon;timestamp;pressure;altitude;pressure_sealevel;temperature;humidity
46506;BME280;32220;49.808;9.968;2024-01-07T09:46:10;98962.50;;;6.00;73.04
46506;BME280;32220;49.808;9.968;2024-01-07T09:48:38;98946.91;;;5.96;72.14
46506;BME280;32220;49.808;9.968;2024-01-07T09:51:29;98970.31;;;6.02;72.16
46506;BME280;32220;49.808;9.968;2024-01-07T09:54:09;98958.03;;;6.02;72.32
46506;BME280;32220;49.808;9.968;2024-01-07T09:56:44;98953.38;;;5.87;71.48
46506;BME280;32220;49.808;9.968;2024-01-07T09:59:35;98957.28;;;5.99;71.75
46506;BME280;32220;49.808;9.968;2024-01-07T10:02:24;98971.81;;;6.07;70.89
46506;BME280;32220;49.808;9.968;2024-01-07T10:04:52;98952.78;;;5.81;70.39
46506;BME280;32220;49.808;9.968;2024-01-07T10:07:19;98973.53;;;5.87;70.29
46506;BME280;32220;49.808;9.968;2024-01-07T10:10:10;98980.78;;;6.03;70.67
46506;BME280;32220;49.808;9.968;2024-01-07T10:12:38;98985.47;;;5.95;70.44
46506;BME280;32220;49.808;9.968;2024-01-07T10:15:24;98944.13;;;5.57;70.26
46506;BME280;32220;49.808;9.968;2024-01-07T10:18:02;98999.69;;;5.91;70.51
46506;BME280;32220;49.808;9.968;2024-01-07T10:20:39;99000.44;;;5.71;69.86
46506;BME280;32220;49.808;9.968;2024-01-07T10:23:07;98978.22;;;5.58;70.09
46506;BME280;32220;49.808;9.968;2024-01-07T10:25:39;99000.94;;;5.59;69.74
46506;BME280;32220;49.808;9.968;2024-01-07T10:28:06;98924.84;;;5.14;70.42
46506;BME280;32220;49.808;9.968;2024-01-07T10:30:34;98992.94;;;5.40;70.45
46506;BME280;32220;49.808;9.968;2024-01-07T10:33:08;98939.25;;;5.04;70.28
46506;BME280;32220;49.808;9.968;2024-01-07T10:35:37;99004.59;;;5.33;70.42
46506;BME280;32220;49.808;9.968;2024-01-07T10:38:08;99000.06;;;5.15;70.50
46506;BME280;32220;49.808;9.968;2024-01-07T10:40:35;99007.75;;;5.20;70.95
46506;BME280;32220;49.808;9.968;2024-01-07T10:43:04;99007.84;;;5.18;71.32
46506;BME280;32220;49.808;9.968;2024-01-07T10:45:48;98981.47;;;4.98;72.23
46506;BME280;32220;49.808;9.968;2024-01-07T10:48:18;99003.59;;;5.14;71.91
46506;BME280;32220;49.808;9.968;2024-01-07T10:50:47;98997.91;;;5.03;71.75
46506;BME280;32220;49.808;9.968;2024-01-07T10:53:20;99006.75;;;5.00;71.15
46506;BME280;32220;49.808;9.968;2024-01-07T10:55:54;98979.19;;;4.89;71.71
46506;BME280;32220;49.808;9.968;2024-01-07T10:58:22;99023.09;;;5.07;71.46
46506;BME280;32220;49.808;9.968;2024-01-07T11:00:51;98995.50;;;4.74;71.58
46506;BME280;32220;49.808;9.968;2024-01-07T11:03:38;99010.69;;;4.65;70.77
46506;BME280;32220;49.808;9.968;2024-01-07T11:06:31;99024.47;;;4.70;71.73
46506;BME280;32220;49.808;9.968;2024-01-07T11:09:06;98977.38;;;4.44;71.63
46506;BME280;32220;49.808;9.968;2024-01-07T11:11:37;98965.03;;;4.21;71.96
46506;BME280;32220;49.808;9.968;2024-01-07T11:14:36;98976.81;;;4.34;73.08
46506;BME280;32220;49.808;9.968;2024-01-07T11:17:09;98984.56;;;4.38;73.01
46506;BME280;32220;49.808;9.968;2024-01-07T11:19:38;99017.13;;;4.57;73.01
46506;BME280;32220;49.808;9.968;2024-01-07T13:56:47;99061.31;;;0.53;94.66
46506;BME280;32220;49.808;9.968;2024-01-07T13:59:15;99107.94;;;1.12;91.30
46506;BME280;32220;49.808;9.968;2024-01-07T14:01:44;99120.84;;;1.59;87.19
46506;BME280;32220;49.808;9.968;2024-01-07T14:04:19;99111.34;;;1.94;83.41
46506;BME280;32220;49.808;9.968;2024-01-07T14:06:46;99139.31;;;2.24;80.29
46506;BME280;32220;49.808;9.968;2024-01-07T14:09:17;99136.09;;;2.48;79.59
46506;BME280;32220;49.808;9.968;2024-01-07T14:11:46;99135.34;;;2.45;77.21
46506;BME280;32220;49.808;9.968;2024-01-07T14:14:14;99146.09;;;2.67;76.08
46506;BME280;32220;49.808;9.968;2024-01-07T14:16:43;99131.38;;;2.63;74.92
46506;BME280;32220;49.808;9.968;2024-01-07T14:19:12;99157.31;;;2.72;74.32
46506;BME280;32220;49.808;9.968;2024-01-07T14:21:42;99167.47;;;2.82;73.99
46506;BME280;32220;49.808;9.968;2024-01-07T14:24:13;99168.16;;;2.89;73.20
46506;BME280;32220;49.808;9.968;2024-01-07T14:26:41;99152.00;;;2.73;72.78
46506;BME280;32220;49.808;9.968;2024-01-07T14:29:10;99167.78;;;2.72;72.28
46506;BME280;32220;49.808;9.968;2024-01-07T14:31:39;99177.31;;;2.73;71.32
46506;BME280;32220;49.808;9.968;2024-01-07T14:34:08;99185.06;;;2.76;71.08
46506;BME280;32220;49.808;9.968;2024-01-07T14:36:39;99195.47;;;2.79;71.34
46506;BME280;32220;49.808;9.968;2024-01-07T14:39:06;99142.91;;;2.56;71.18
46506;BME280;32220;49.808;9.968;2024-01-07T14:41:34;99156.13;;;2.49;70.99
46506;BME280;32220;49.808;9.968;2024-01-07T14:44:03;99204.63;;;2.61;70.57
46506;BME280;32220;49.808;9.968;2024-01-07T14:46:32;99145.38;;;2.26;70.66
46506;BME280;32220;49.808;9.968;2024-01-07T14:49:00;99214.00;;;2.70;70.73
46506;BME280;32220;49.808;9.968;2024-01-07T14:51:27;99190.03;;;2.52;70.16
46506;BME280;32220;49.808;9.968;2024-01-07T14:53:56;99217.66;;;2.63;70.52
46506;BME280;32220;49.808;9.968;2024-01-07T14:56:24;99182.47;;;2.42;70.92
46506;BME280;32220;49.808;9.968;2024-01-07T14:58:52;99200.84;;;2.37;70.53
46506;BME280;32220;49.808;9.968;2024-01-07T15:01:19;99218.03;;;2.47;70.72
46506;BME280;32220;49.808;9.968;2024-01-07T15:03:49;99188.28;;;2.17;70.11
